Terminal Aerodrome Forecast
Issued by NWS

Home | Current Version | Previous Version | Text Only | Print | Product List | Glossary On
Versions: 1 2 3 4 5 6 7 8 9 10 11 12 13 14 15 16 17 18 19 20 21 22 23 24 25 26 27 28 29 30 31 32 33 34 35 36 37 38 39 40 41 42 43 44 45 46 47 48 49 50
000
FTUS43 KMKX 182152 AAA
TAFUES
TAF AMD
KUES 182152Z 1822/1918 24010KT P6SM BKN007
     FM190000 22006KT P6SM SCT007
     FM190700 23004KT 3SM BR SCT004
     FM191100 23004KT 1 1/2SM BR OVC004
     FM191500 17004KT P6SM SCT008=

USA.gov is the U.S. government's official web portal to all federal, state and local government web resources and services.